sensor_id;sensor_type;location;lat;lon;timestamp;P1;durP1;ratioP1;P2;durP2;ratioP2
38937;SDS011;24727;51.974;20.868;2024-01-30T00:02:14;43.08;;;21.15;;
38937;SDS011;24727;51.974;20.868;2024-01-30T00:04:40;43.83;;;21.17;;
38937;SDS011;24727;51.974;20.868;2024-01-30T00:07:06;45.42;;;22.25;;
38937;SDS011;24727;51.974;20.868;2024-01-30T00:09:32;48.28;;;21.38;;
38937;SDS011;24727;51.974;20.868;2024-01-30T00:11:57;43.10;;;20.08;;
38937;SDS011;24727;51.974;20.868;2024-01-30T00:14:23;44.88;;;21.05;;
38937;SDS011;24727;51.974;20.868;2024-01-30T00:16:50;46.40;;;21.05;;
38937;SDS011;24727;51.974;20.868;2024-01-30T00:19:16;45.70;;;21.83;;
38937;SDS011;24727;51.974;20.868;2024-01-30T00:21:42;46.63;;;22.38;;
38937;SDS011;24727;51.974;20.868;2024-01-30T00:24:08;42.72;;;21.08;;
38937;SDS011;24727;51.974;20.868;2024-01-30T00:26:34;46.25;;;22.08;;
38937;SDS011;24727;51.974;20.868;2024-01-30T00:29:00;50.88;;;22.63;;
38937;SDS011;24727;51.974;20.868;2024-01-30T00:31:26;47.42;;;22.00;;
38937;SDS011;24727;51.974;20.868;2024-01-30T00:33:52;46.38;;;21.73;;
38937;SDS011;24727;51.974;20.868;2024-01-30T00:36:17;45.58;;;21.60;;
38937;SDS011;24727;51.974;20.868;2024-01-30T00:38:43;43.40;;;20.38;;
38937;SDS011;24727;51.974;20.868;2024-01-30T00:41:09;43.58;;;21.67;;
38937;SDS011;24727;51.974;20.868;2024-01-30T00:43:35;41.67;;;20.73;;
38937;SDS011;24727;51.974;20.868;2024-01-30T00:46:02;41.15;;;21.05;;
38937;SDS011;24727;51.974;20.868;2024-01-30T00:48:28;41.53;;;19.98;;
38937;SDS011;24727;51.974;20.868;2024-01-30T00:50:54;49.22;;;22.55;;
38937;SDS011;24727;51.974;20.868;2024-01-30T00:53:20;42.55;;;21.40;;
38937;SDS011;24727;51.974;20.868;2024-01-30T00:55:46;50.92;;;21.55;;
38937;SDS011;24727;51.974;20.868;2024-01-30T00:58:11;44.90;;;21.83;;
38937;SDS011;24727;51.974;20.868;2024-01-30T01:00:37;45.92;;;22.00;;
38937;SDS011;24727;51.974;20.868;2024-01-30T01:03:04;47.03;;;22.60;;
38937;SDS011;24727;51.974;20.868;2024-01-30T01:05:30;45.67;;;22.38;;
38937;SDS011;24727;51.974;20.868;2024-01-30T01:07:56;44.92;;;20.67;;
38937;SDS011;24727;51.974;20.868;2024-01-30T01:10:21;45.70;;;21.73;;
38937;SDS011;24727;51.974;20.868;2024-01-30T01:12:48;38.42;;;19.35;;
38937;SDS011;24727;51.974;20.868;2024-01-30T01:15:14;39.45;;;19.52;;
38937;SDS011;24727;51.974;20.868;2024-01-30T01:17:40;46.70;;;21.38;;
38937;SDS011;24727;51.974;20.868;2024-01-30T01:20:07;40.10;;;18.95;;
38937;SDS011;24727;51.974;20.868;2024-01-30T01:22:34;36.25;;;17.95;;
38937;SDS011;24727;51.974;20.868;2024-01-30T01:25:00;41.65;;;19.25;;
38937;SDS011;24727;51.974;20.868;2024-01-30T01:27:26;40.60;;;20.27;;
38937;SDS011;24727;51.974;20.868;2024-01-30T01:29:52;37.45;;;18.35;;
38937;SDS011;24727;51.974;20.868;2024-01-30T01:32:19;45.55;;;20.98;;
38937;SDS011;24727;51.974;20.868;2024-01-30T01:34:45;32.95;;;15.38;;
38937;SDS011;24727;51.974;20.868;2024-01-30T01:37:11;40.88;;;18.80;;
38937;SDS011;24727;51.974;20.868;2024-01-30T01:39:37;36.33;;;18.58;;
38937;SDS011;24727;51.974;20.868;2024-01-30T01:42:03;41.75;;;18.75;;
38937;SDS011;24727;51.974;20.868;2024-01-30T01:44:29;40.53;;;19.10;;
38937;SDS011;24727;51.974;20.868;2024-01-30T01:46:55;40.03;;;17.88;;
38937;SDS011;24727;51.974;20.868;2024-01-30T01:49:23;41.25;;;19.35;;
38937;SDS011;24727;51.974;20.868;2024-01-30T01:51:50;39.50;;;18.42;;
38937;SDS011;24727;51.974;20.868;2024-01-30T01:54:19;40.13;;;18.88;;
38937;SDS011;24727;51.974;20.868;2024-01-30T01:56:45;42.35;;;18.67;;
38937;SDS011;24727;51.974;20.868;2024-01-30T01:59:11;34.72;;;17.27;;
38937;SDS011;24727;51.974;20.868;2024-01-30T02:01:37;36.00;;;17.33;;
38937;SDS011;24727;51.974;20.868;2024-01-30T02:04:04;39.55;;;18.10;;
38937;SDS011;24727;51.974;20.868;2024-01-30T02:06:30;40.22;;;18.40;;
38937;SDS011;24727;51.974;20.868;2024-01-30T02:08:57;38.00;;;18.88;;
38937;SDS011;24727;51.974;20.868;2024-01-30T02:11:23;33.35;;;16.27;;
38937;SDS011;24727;51.974;20.868;2024-01-30T02:13:49;36.83;;;17.30;;
38937;SDS011;24727;51.974;20.868;2024-01-30T02:16:15;36.85;;;16.98;;
38937;SDS011;24727;51.974;20.868;2024-01-30T02:18:42;41.30;;;18.02;;
38937;SDS011;24727;51.974;20.868;2024-01-30T02:21:12;38.15;;;16.83;;
38937;SDS011;24727;51.974;20.868;2024-01-30T02:23:39;34.20;;;17.33;;
38937;SDS011;24727;51.974;20.868;2024-01-30T02:26:06;34.67;;;16.23;;
38937;SDS011;24727;51.974;20.868;2024-01-30T02:28:31;30.10;;;14.23;;
38937;SDS011;24727;51.974;20.868;2024-01-30T02:30:57;35.50;;;16.23;;
38937;SDS011;24727;51.974;20.868;2024-01-30T02:33:23;33.63;;;16.80;;
38937;SDS011;24727;51.974;20.868;2024-01-30T02:35:49;41.25;;;18.40;;
38937;SDS011;24727;51.974;20.868;2024-01-30T02:38:15;37.03;;;17.63;;
38937;SDS011;24727;51.974;20.868;2024-01-30T02:40:41;41.78;;;18.02;;
38937;SDS011;24727;51.974;20.868;2024-01-30T02:43:07;36.10;;;17.67;;
38937;SDS011;24727;51.974;20.868;2024-01-30T02:45:33;38.65;;;17.33;;
38937;SDS011;24727;51.974;20.868;2024-01-30T02:47:59;33.17;;;16.73;;
38937;SDS011;24727;51.974;20.868;2024-01-30T02:50:25;34.67;;;17.98;;
38937;SDS011;24727;51.974;20.868;2024-01-30T02:52:50;37.00;;;18.25;;
38937;SDS011;24727;51.974;20.868;2024-01-30T02:55:16;36.42;;;18.55;;
38937;SDS011;24727;51.974;20.868;2024-01-30T02:57:45;39.63;;;19.23;;
38937;SDS011;24727;51.974;20.868;2024-01-30T03:00:11;38.28;;;18.48;;
38937;SDS011;24727;51.974;20.868;2024-01-30T03:02:37;39.17;;;18.20;;
38937;SDS011;24727;51.974;20.868;2024-01-30T03:05:03;36.55;;;17.33;;
38937;SDS011;24727;51.974;20.868;2024-01-30T03:07:30;37.33;;;18.60;;
38937;SDS011;24727;51.974;20.868;2024-01-30T03:09:56;43.72;;;18.60;;
38937;SDS011;24727;51.974;20.868;2024-01-30T03:12:22;36.65;;;18.73;;
38937;SDS011;24727;51.974;20.868;2024-01-30T03:14:48;36.28;;;16.98;;
38937;SDS011;24727;51.974;20.868;2024-01-30T03:17:14;34.10;;;17.13;;
38937;SDS011;24727;51.974;20.868;2024-01-30T03:19:40;35.60;;;17.05;;
38937;SDS011;24727;51.974;20.868;2024-01-30T03:22:06;36.92;;;17.50;;
38937;SDS011;24727;51.974;20.868;2024-01-30T03:24:32;39.08;;;17.23;;
38937;SDS011;24727;51.974;20.868;2024-01-30T03:26:58;35.42;;;16.38;;
38937;SDS011;24727;51.974;20.868;2024-01-30T03:29:24;35.63;;;16.08;;
38937;SDS011;24727;51.974;20.868;2024-01-30T03:31:50;37.95;;;17.80;;
38937;SDS011;24727;51.974;20.868;2024-01-30T03:34:16;37.53;;;17.98;;
38937;SDS011;24727;51.974;20.868;2024-01-30T03:36:41;36.78;;;16.83;;
38937;SDS011;24727;51.974;20.868;2024-01-30T03:39:07;29.08;;;14.82;;
38937;SDS011;24727;51.974;20.868;2024-01-30T03:41:33;34.90;;;17.10;;
38937;SDS011;24727;51.974;20.868;2024-01-30T03:43:59;37.55;;;16.08;;
38937;SDS011;24727;51.974;20.868;2024-01-30T03:46:25;34.72;;;16.45;;
38937;SDS011;24727;51.974;20.868;2024-01-30T03:48:50;31.75;;;16.13;;
38937;SDS011;24727;51.974;20.868;2024-01-30T03:51:16;33.03;;;16.30;;
38937;SDS011;24727;51.974;20.868;2024-01-30T03:53:42;31.33;;;16.25;;
38937;SDS011;24727;51.974;20.868;2024-01-30T03:56:09;34.55;;;17.67;;
38937;SDS011;24727;51.974;20.868;2024-01-30T03:58:35;33.92;;;16.30;;
38937;SDS011;24727;51.974;20.868;2024-01-30T04:01:01;41.35;;;19.10;;
38937;SDS011;24727;51.974;20.868;2024-01-30T04:03:27;36.65;;;17.25;;
38937;SDS011;24727;51.974;20.868;2024-01-30T04:05:53;34.38;;;17.15;;
38937;SDS011;24727;51.974;20.868;2024-01-30T04:08:19;34.38;;;16.85;;
38937;SDS011;24727;51.974;20.868;2024-01-30T04:10:46;35.15;;;16.02;;
38937;SDS011;24727;51.974;20.868;2024-01-30T04:13:12;36.10;;;15.82;;
38937;SDS011;24727;51.974;20.868;2024-01-30T04:15:38;30.15;;;14.93;;
38937;SDS011;24727;51.974;20.868;2024-01-30T04:18:05;36.33;;;16.63;;
38937;SDS011;24727;51.974;20.868;2024-01-30T04:20:30;33.28;;;16.80;;
38937;SDS011;24727;51.974;20.868;2024-01-30T04:22:56;36.58;;;18.00;;
38937;SDS011;24727;51.974;20.868;2024-01-30T04:25:22;38.40;;;16.90;;
38937;SDS011;24727;51.974;20.868;2024-01-30T04:27:48;35.72;;;17.42;;
38937;SDS011;24727;51.974;20.868;2024-01-30T04:30:14;33.85;;;16.35;;
38937;SDS011;24727;51.974;20.868;2024-01-30T04:32:40;28.80;;;13.95;;
38937;SDS011;24727;51.974;20.868;2024-01-30T04:35:06;36.17;;;16.83;;
38937;SDS011;24727;51.974;20.868;2024-01-30T04:37:32;36.22;;;17.65;;
38937;SDS011;24727;51.974;20.868;2024-01-30T04:39:58;40.58;;;17.95;;
38937;SDS011;24727;51.974;20.868;2024-01-30T04:42:24;38.22;;;17.38;;
38937;SDS011;24727;51.974;20.868;2024-01-30T04:44:50;40.83;;;18.30;;
38937;SDS011;24727;51.974;20.868;2024-01-30T04:47:16;35.10;;;17.30;;
38937;SDS011;24727;51.974;20.868;2024-01-30T04:49:42;39.42;;;18.55;;
38937;SDS011;24727;51.974;20.868;2024-01-30T04:52:08;34.50;;;14.50;;
38937;SDS011;24727;51.974;20.868;2024-01-30T04:54:34;37.45;;;17.08;;
38937;SDS011;24727;51.974;20.868;2024-01-30T04:57:03;35.10;;;17.08;;
38937;SDS011;24727;51.974;20.868;2024-01-30T04:59:30;30.75;;;14.98;;
38937;SDS011;24727;51.974;20.868;2024-01-30T05:01:56;37.53;;;17.38;;
38937;SDS011;24727;51.974;20.868;2024-01-30T05:04:22;34.15;;;16.67;;
38937;SDS011;24727;51.974;20.868;2024-01-30T05:06:48;35.72;;;16.38;;
38937;SDS011;24727;51.974;20.868;2024-01-30T05:09:14;34.97;;;15.35;;
38937;SDS011;24727;51.974;20.868;2024-01-30T05:11:40;34.42;;;15.40;;
38937;SDS011;24727;51.974;20.868;2024-01-30T05:14:06;34.88;;;15.80;;
38937;SDS011;24727;51.974;20.868;2024-01-30T05:16:33;36.45;;;17.52;;
38937;SDS011;24727;51.974;20.868;2024-01-30T05:18:59;35.15;;;16.58;;
38937;SDS011;24727;51.974;20.868;2024-01-30T05:21:25;34.78;;;15.18;;
38937;SDS011;24727;51.974;20.868;2024-01-30T05:23:51;34.60;;;16.67;;
38937;SDS011;24727;51.974;20.868;2024-01-30T05:26:17;34.05;;;16.38;;
38937;SDS011;24727;51.974;20.868;2024-01-30T05:28:43;31.70;;;13.93;;
38937;SDS011;24727;51.974;20.868;2024-01-30T05:31:13;32.15;;;15.50;;
38937;SDS011;24727;51.974;20.868;2024-01-30T05:33:39;40.50;;;17.70;;
38937;SDS011;24727;51.974;20.868;2024-01-30T05:36:06;40.00;;;18.33;;
38937;SDS011;24727;51.974;20.868;2024-01-30T05:38:32;38.53;;;17.45;;
38937;SDS011;24727;51.974;20.868;2024-01-30T05:40:57;35.70;;;16.42;;
38937;SDS011;24727;51.974;20.868;2024-01-30T05:43:24;34.95;;;16.30;;
38937;SDS011;24727;51.974;20.868;2024-01-30T05:45:50;37.42;;;17.33;;
38937;SDS011;24727;51.974;20.868;2024-01-30T05:48:17;31.55;;;16.50;;
38937;SDS011;24727;51.974;20.868;2024-01-30T05:50:43;37.05;;;16.95;;
38937;SDS011;24727;51.974;20.868;2024-01-30T05:53:10;38.75;;;16.80;;
38937;SDS011;24727;51.974;20.868;2024-01-30T05:55:36;32.22;;;15.85;;
38937;SDS011;24727;51.974;20.868;2024-01-30T05:58:02;34.63;;;15.95;;
38937;SDS011;24727;51.974;20.868;2024-01-30T06:00:29;36.05;;;17.00;;
38937;SDS011;24727;51.974;20.868;2024-01-30T06:02:55;34.20;;;16.20;;
38937;SDS011;24727;51.974;20.868;2024-01-30T06:05:21;38.63;;;17.80;;
38937;SDS011;24727;51.974;20.868;2024-01-30T06:07:46;33.60;;;15.77;;
38937;SDS011;24727;51.974;20.868;2024-01-30T06:10:12;32.90;;;17.08;;
38937;SDS011;24727;51.974;20.868;2024-01-30T06:12:38;37.58;;;17.63;;
38937;SDS011;24727;51.974;20.868;2024-01-30T06:15:05;34.70;;;15.68;;
38937;SDS011;24727;51.974;20.868;2024-01-30T06:17:31;34.47;;;17.00;;
38937;SDS011;24727;51.974;20.868;2024-01-30T06:19:57;26.08;;;13.30;;
38937;SDS011;24727;51.974;20.868;2024-01-30T06:22:24;39.25;;;17.13;;
38937;SDS011;24727;51.974;20.868;2024-01-30T06:24:50;37.63;;;17.60;;
38937;SDS011;24727;51.974;20.868;2024-01-30T06:27:16;37.83;;;17.90;;
38937;SDS011;24727;51.974;20.868;2024-01-30T06:29:42;31.42;;;15.30;;
38937;SDS011;24727;51.974;20.868;2024-01-30T06:32:09;36.38;;;16.50;;
38937;SDS011;24727;51.974;20.868;2024-01-30T06:34:34;35.22;;;17.15;;
38937;SDS011;24727;51.974;20.868;2024-01-30T06:37:01;32.03;;;15.07;;
38937;SDS011;24727;51.974;20.868;2024-01-30T06:39:27;33.50;;;16.33;;
38937;SDS011;24727;51.974;20.868;2024-01-30T06:41:52;38.38;;;16.83;;
38937;SDS011;24727;51.974;20.868;2024-01-30T06:44:18;36.60;;;16.92;;
38937;SDS011;24727;51.974;20.868;2024-01-30T06:46:44;41.15;;;17.65;;
38937;SDS011;24727;51.974;20.868;2024-01-30T06:49:10;31.30;;;15.98;;
38937;SDS011;24727;51.974;20.868;2024-01-30T06:51:36;36.25;;;16.90;;
38937;SDS011;24727;51.974;20.868;2024-01-30T06:54:02;40.05;;;17.30;;
38937;SDS011;24727;51.974;20.868;2024-01-30T06:56:28;36.42;;;16.35;;
38937;SDS011;24727;51.974;20.868;2024-01-30T06:58:54;37.63;;;16.08;;
38937;SDS011;24727;51.974;20.868;2024-01-30T07:01:20;37.50;;;16.95;;
38937;SDS011;24727;51.974;20.868;2024-01-30T07:03:46;33.97;;;17.13;;
38937;SDS011;24727;51.974;20.868;2024-01-30T07:06:12;30.23;;;15.80;;
38937;SDS011;24727;51.974;20.868;2024-01-30T07:08:38;37.83;;;15.68;;
38937;SDS011;24727;51.974;20.868;2024-01-30T07:11:06;33.35;;;15.38;;
38937;SDS011;24727;51.974;20.868;2024-01-30T07:13:33;29.80;;;15.10;;
38937;SDS011;24727;51.974;20.868;2024-01-30T07:15:59;27.05;;;14.43;;
38937;SDS011;24727;51.974;20.868;2024-01-30T07:18:25;35.42;;;15.10;;
38937;SDS011;24727;51.974;20.868;2024-01-30T07:20:51;36.05;;;15.45;;
38937;SDS011;24727;51.974;20.868;2024-01-30T07:23:17;29.42;;;14.23;;
38937;SDS011;24727;51.974;20.868;2024-01-30T07:25:43;31.27;;;14.65;;
38937;SDS011;24727;51.974;20.868;2024-01-30T07:28:10;27.15;;;13.95;;
38937;SDS011;24727;51.974;20.868;2024-01-30T07:30:37;27.77;;;14.30;;
38937;SDS011;24727;51.974;20.868;2024-01-30T07:33:03;34.38;;;14.43;;
38937;SDS011;24727;51.974;20.868;2024-01-30T07:35:29;28.88;;;13.27;;
38937;SDS011;24727;51.974;20.868;2024-01-30T07:37:55;26.42;;;13.57;;
38937;SDS011;24727;51.974;20.868;2024-01-30T07:40:22;28.00;;;13.57;;
38937;SDS011;24727;51.974;20.868;2024-01-30T07:42:49;29.75;;;13.98;;
38937;SDS011;24727;51.974;20.868;2024-01-30T07:45:15;27.52;;;13.68;;
38937;SDS011;24727;51.974;20.868;2024-01-30T07:47:41;31.45;;;14.50;;
38937;SDS011;24727;51.974;20.868;2024-01-30T07:50:07;29.42;;;13.45;;
38937;SDS011;24727;51.974;20.868;2024-01-30T07:52:34;28.10;;;13.30;;
38937;SDS011;24727;51.974;20.868;2024-01-30T07:55:00;26.33;;;14.05;;
38937;SDS011;24727;51.974;20.868;2024-01-30T07:57:26;27.90;;;11.98;;
38937;SDS011;24727;51.974;20.868;2024-01-30T07:59:52;27.77;;;13.50;;
38937;SDS011;24727;51.974;20.868;2024-01-30T08:02:17;26.85;;;13.13;;
38937;SDS011;24727;51.974;20.868;2024-01-30T08:04:43;26.02;;;12.75;;
38937;SDS011;24727;51.974;20.868;2024-01-30T08:07:13;28.75;;;12.32;;
38937;SDS011;24727;51.974;20.868;2024-01-30T08:09:39;27.40;;;12.98;;
38937;SDS011;24727;51.974;20.868;2024-01-30T08:12:05;26.67;;;13.50;;
38937;SDS011;24727;51.974;20.868;2024-01-30T08:14:31;29.33;;;13.10;;
38937;SDS011;24727;51.974;20.868;2024-01-30T08:16:57;26.00;;;13.43;;
38937;SDS011;24727;51.974;20.868;2024-01-30T08:19:23;27.15;;;12.48;;
38937;SDS011;24727;51.974;20.868;2024-01-30T08:21:49;26.83;;;12.13;;
38937;SDS011;24727;51.974;20.868;2024-01-30T08:24:15;27.30;;;13.65;;
38937;SDS011;24727;51.974;20.868;2024-01-30T08:26:40;26.88;;;12.50;;
38937;SDS011;24727;51.974;20.868;2024-01-30T08:29:06;28.30;;;13.15;;
38937;SDS011;24727;51.974;20.868;2024-01-30T08:31:32;24.85;;;12.48;;
38937;SDS011;24727;51.974;20.868;2024-01-30T08:33:58;26.65;;;12.63;;
38937;SDS011;24727;51.974;20.868;2024-01-30T08:36:24;24.08;;;12.70;;
38937;SDS011;24727;51.974;20.868;2024-01-30T08:38:50;27.50;;;12.75;;
38937;SDS011;24727;51.974;20.868;2024-01-30T08:41:18;25.33;;;13.18;;
38937;SDS011;24727;51.974;20.868;2024-01-30T08:43:44;26.30;;;13.10;;
38937;SDS011;24727;51.974;20.868;2024-01-30T08:46:11;23.90;;;12.90;;
38937;SDS011;24727;51.974;20.868;2024-01-30T08:48:36;20.10;;;11.52;;
38937;SDS011;24727;51.974;20.868;2024-01-30T08:51:02;25.40;;;12.73;;
38937;SDS011;24727;51.974;20.868;2024-01-30T08:53:28;25.48;;;11.85;;
38937;SDS011;24727;51.974;20.868;2024-01-30T08:55:54;24.92;;;12.98;;
38937;SDS011;24727;51.974;20.868;2024-01-30T08:58:20;25.35;;;12.85;;
38937;SDS011;24727;51.974;20.868;2024-01-30T09:00:46;22.27;;;11.85;;
38937;SDS011;24727;51.974;20.868;2024-01-30T09:03:12;24.63;;;13.45;;
38937;SDS011;24727;51.974;20.868;2024-01-30T09:05:38;23.17;;;11.73;;
38937;SDS011;24727;51.974;20.868;2024-01-30T09:08:03;25.40;;;12.35;;
38937;SDS011;24727;51.974;20.868;2024-01-30T09:10:29;24.88;;;11.65;;
38937;SDS011;24727;51.974;20.868;2024-01-30T09:12:55;21.10;;;11.02;;
38937;SDS011;24727;51.974;20.868;2024-01-30T09:15:21;22.83;;;11.82;;
38937;SDS011;24727;51.974;20.868;2024-01-30T09:17:47;22.70;;;11.15;;
38937;SDS011;24727;51.974;20.868;2024-01-30T09:20:13;23.73;;;11.65;;
38937;SDS011;24727;51.974;20.868;2024-01-30T09:22:39;24.33;;;12.32;;
38937;SDS011;24727;51.974;20.868;2024-01-30T09:25:05;22.80;;;11.25;;
38937;SDS011;24727;51.974;20.868;2024-01-30T09:27:31;21.67;;;11.10;;
38937;SDS011;24727;51.974;20.868;2024-01-30T09:29:57;25.73;;;12.73;;
38937;SDS011;24727;51.974;20.868;2024-01-30T09:32:22;22.13;;;11.23;;
38937;SDS011;24727;51.974;20.868;2024-01-30T09:34:48;24.17;;;12.00;;
38937;SDS011;24727;51.974;20.868;2024-01-30T09:37:14;23.33;;;11.18;;
38937;SDS011;24727;51.974;20.868;2024-01-30T09:39:42;23.20;;;12.05;;
38937;SDS011;24727;51.974;20.868;2024-01-30T09:44:43;28.05;;;11.60;;
38937;SDS011;24727;51.974;20.868;2024-01-30T09:47:12;22.52;;;11.43;;
38937;SDS011;24727;51.974;20.868;2024-01-30T09:49:38;19.98;;;11.13;;
38937;SDS011;24727;51.974;20.868;2024-01-30T09:52:06;20.88;;;10.65;;
38937;SDS011;24727;51.974;20.868;2024-01-30T09:54:33;22.67;;;10.90;;
38937;SDS011;24727;51.974;20.868;2024-01-30T09:57:00;19.83;;;11.68;;
38937;SDS011;24727;51.974;20.868;2024-01-30T09:59:25;24.13;;;12.10;;
38937;SDS011;24727;51.974;20.868;2024-01-30T10:01:51;19.85;;;10.85;;
38937;SDS011;24727;51.974;20.868;2024-01-30T10:04:17;23.95;;;11.35;;
38937;SDS011;24727;51.974;20.868;2024-01-30T10:06:43;25.90;;;12.80;;
38937;SDS011;24727;51.974;20.868;2024-01-30T10:09:09;23.45;;;11.55;;
38937;SDS011;24727;51.974;20.868;2024-01-30T10:11:36;21.33;;;11.68;;
38937;SDS011;24727;51.974;20.868;2024-01-30T10:14:02;21.08;;;10.70;;
38937;SDS011;24727;51.974;20.868;2024-01-30T10:16:28;21.38;;;11.20;;
38937;SDS011;24727;51.974;20.868;2024-01-30T10:18:53;20.90;;;11.02;;
38937;SDS011;24727;51.974;20.868;2024-01-30T10:21:20;21.50;;;11.10;;
38937;SDS011;24727;51.974;20.868;2024-01-30T10:23:46;20.77;;;11.32;;
38937;SDS011;24727;51.974;20.868;2024-01-30T10:26:12;21.15;;;10.38;;
38937;SDS011;24727;51.974;20.868;2024-01-30T10:28:38;22.27;;;11.18;;
38937;SDS011;24727;51.974;20.868;2024-01-30T10:31:04;22.15;;;11.13;;
38937;SDS011;24727;51.974;20.868;2024-01-30T10:33:30;19.92;;;9.90;;
38937;SDS011;24727;51.974;20.868;2024-01-30T10:35:59;23.48;;;11.05;;
38937;SDS011;24727;51.974;20.868;2024-01-30T10:38:28;22.23;;;10.75;;
38937;SDS011;24727;51.974;20.868;2024-01-30T10:40:59;20.83;;;10.50;;
38937;SDS011;24727;51.974;20.868;2024-01-30T10:43:30;18.70;;;11.27;;
38937;SDS011;24727;51.974;20.868;2024-01-30T10:48:41;24.55;;;11.95;;
38937;SDS011;24727;51.974;20.868;2024-01-30T10:51:10;17.90;;;9.88;;
38937;SDS011;24727;51.974;20.868;2024-01-30T10:53:36;20.25;;;10.43;;
38937;SDS011;24727;51.974;20.868;2024-01-30T10:56:03;49.53;;;23.33;;
38937;SDS011;24727;51.974;20.868;2024-01-30T10:58:30;19.67;;;11.10;;
38937;SDS011;24727;51.974;20.868;2024-01-30T11:00:56;22.08;;;11.43;;
38937;SDS011;24727;51.974;20.868;2024-01-30T11:03:23;18.75;;;10.63;;
38937;SDS011;24727;51.974;20.868;2024-01-30T11:05:50;22.08;;;11.25;;
38937;SDS011;24727;51.974;20.868;2024-01-30T11:08:24;19.67;;;10.60;;
38937;SDS011;24727;51.974;20.868;2024-01-30T11:10:56;21.00;;;10.80;;
38937;SDS011;24727;51.974;20.868;2024-01-30T11:13:26;17.48;;;9.98;;
38937;SDS011;24727;51.974;20.868;2024-01-30T11:15:53;20.05;;;9.40;;
38937;SDS011;24727;51.974;20.868;2024-01-30T11:18:25;18.83;;;9.80;;
38937;SDS011;24727;51.974;20.868;2024-01-30T11:23:17;20.05;;;9.75;;
38937;SDS011;24727;51.974;20.868;2024-01-30T11:25:45;17.42;;;9.27;;
38937;SDS011;24727;51.974;20.868;2024-01-30T11:28:13;18.92;;;10.35;;
38937;SDS011;24727;51.974;20.868;2024-01-30T11:30:43;19.30;;;9.15;;
38937;SDS011;24727;51.974;20.868;2024-01-30T11:33:10;20.48;;;10.35;;
38937;SDS011;24727;51.974;20.868;2024-01-30T11:35:38;22.15;;;10.35;;
38937;SDS011;24727;51.974;20.868;2024-01-30T11:38:05;19.05;;;10.20;;
38937;SDS011;24727;51.974;20.868;2024-01-30T11:40:32;20.83;;;10.82;;
38937;SDS011;24727;51.974;20.868;2024-01-30T11:43:00;22.88;;;10.27;;
38937;SDS011;24727;51.974;20.868;2024-01-30T11:45:27;19.58;;;10.77;;
38937;SDS011;24727;51.974;20.868;2024-01-30T11:47:53;18.85;;;9.57;;
38937;SDS011;24727;51.974;20.868;2024-01-30T11:50:19;17.88;;;9.20;;
38937;SDS011;24727;51.974;20.868;2024-01-30T11:52:45;21.27;;;10.35;;
38937;SDS011;24727;51.974;20.868;2024-01-30T11:55:12;22.35;;;11.30;;
38937;SDS011;24727;51.974;20.868;2024-01-30T11:57:39;20.20;;;10.23;;
38937;SDS011;24727;51.974;20.868;2024-01-30T12:00:05;17.27;;;8.85;;
38937;SDS011;24727;51.974;20.868;2024-01-30T12:02:38;18.95;;;10.02;;
38937;SDS011;24727;51.974;20.868;2024-01-30T12:05:05;17.08;;;9.40;;
38937;SDS011;24727;51.974;20.868;2024-01-30T12:07:31;19.63;;;9.45;;
38937;SDS011;24727;51.974;20.868;2024-01-30T12:09:58;16.98;;;8.98;;
38937;SDS011;24727;51.974;20.868;2024-01-30T12:12:25;17.40;;;10.05;;
38937;SDS011;24727;51.974;20.868;2024-01-30T12:14:52;15.48;;;8.43;;
38937;SDS011;24727;51.974;20.868;2024-01-30T12:17:28;16.65;;;9.05;;
38937;SDS011;24727;51.974;20.868;2024-01-30T12:20:08;15.32;;;9.02;;
38937;SDS011;24727;51.974;20.868;2024-01-30T12:22:36;16.20;;;8.73;;
38937;SDS011;24727;51.974;20.868;2024-01-30T12:25:10;18.35;;;9.90;;
38937;SDS011;24727;51.974;20.868;2024-01-30T12:27:38;19.75;;;9.90;;
38937;SDS011;24727;51.974;20.868;2024-01-30T12:30:08;22.30;;;9.38;;
38937;SDS011;24727;51.974;20.868;2024-01-30T12:32:36;18.77;;;9.73;;
38937;SDS011;24727;51.974;20.868;2024-01-30T12:35:07;18.50;;;8.95;;
38937;SDS011;24727;51.974;20.868;2024-01-30T12:37:35;18.15;;;9.48;;
38937;SDS011;24727;51.974;20.868;2024-01-30T12:40:01;18.65;;;8.90;;
38937;SDS011;24727;51.974;20.868;2024-01-30T12:42:27;18.23;;;9.25;;
38937;SDS011;24727;51.974;20.868;2024-01-30T12:44:53;17.33;;;8.93;;
38937;SDS011;24727;51.974;20.868;2024-01-30T12:47:21;15.23;;;9.52;;
38937;SDS011;24727;51.974;20.868;2024-01-30T12:49:47;19.83;;;10.05;;
38937;SDS011;24727;51.974;20.868;2024-01-30T12:52:15;15.77;;;9.07;;
38937;SDS011;24727;51.974;20.868;2024-01-30T12:54:41;20.58;;;9.80;;
38937;SDS011;24727;51.974;20.868;2024-01-30T12:57:07;15.57;;;8.65;;
38937;SDS011;24727;51.974;20.868;2024-01-30T12:59:33;19.48;;;9.82;;
38937;SDS011;24727;51.974;20.868;2024-01-30T13:02:00;18.10;;;9.30;;
38937;SDS011;24727;51.974;20.868;2024-01-30T13:04:27;16.15;;;9.15;;
38937;SDS011;24727;51.974;20.868;2024-01-30T13:06:53;17.83;;;9.32;;
38937;SDS011;24727;51.974;20.868;2024-01-30T13:09:19;21.30;;;11.70;;
38937;SDS011;24727;51.974;20.868;2024-01-30T13:11:45;19.63;;;10.00;;
38937;SDS011;24727;51.974;20.868;2024-01-30T13:14:11;17.33;;;8.90;;
38937;SDS011;24727;51.974;20.868;2024-01-30T13:16:37;18.08;;;9.70;;
38937;SDS011;24727;51.974;20.868;2024-01-30T13:19:03;17.10;;;8.93;;
38937;SDS011;24727;51.974;20.868;2024-01-30T13:21:29;16.20;;;9.05;;
38937;SDS011;24727;51.974;20.868;2024-01-30T13:23:55;16.77;;;9.45;;
38937;SDS011;24727;51.974;20.868;2024-01-30T13:26:21;15.40;;;8.32;;
38937;SDS011;24727;51.974;20.868;2024-01-30T13:28:47;21.27;;;9.48;;
38937;SDS011;24727;51.974;20.868;2024-01-30T13:31:13;17.77;;;8.88;;
38937;SDS011;24727;51.974;20.868;2024-01-30T13:33:40;15.90;;;8.07;;
38937;SDS011;24727;51.974;20.868;2024-01-30T13:36:06;14.68;;;8.95;;
38937;SDS011;24727;51.974;20.868;2024-01-30T13:38:33;14.40;;;8.07;;
38937;SDS011;24727;51.974;20.868;2024-01-30T13:40:59;17.35;;;8.20;;
38937;SDS011;24727;51.974;20.868;2024-01-30T13:43:26;17.90;;;8.30;;
38937;SDS011;24727;51.974;20.868;2024-01-30T13:45:53;17.92;;;8.73;;
38937;SDS011;24727;51.974;20.868;2024-01-30T13:48:19;18.20;;;8.60;;
38937;SDS011;24727;51.974;20.868;2024-01-30T13:50:44;14.90;;;7.28;;
38937;SDS011;24727;51.974;20.868;2024-01-30T13:53:11;15.02;;;8.27;;
38937;SDS011;24727;51.974;20.868;2024-01-30T13:55:37;14.98;;;7.82;;
38937;SDS011;24727;51.974;20.868;2024-01-30T13:58:04;15.35;;;8.85;;
38937;SDS011;24727;51.974;20.868;2024-01-30T14:00:30;15.20;;;8.13;;
38937;SDS011;24727;51.974;20.868;2024-01-30T14:02:56;14.98;;;7.82;;
38937;SDS011;24727;51.974;20.868;2024-01-30T14:05:23;16.20;;;7.80;;
38937;SDS011;24727;51.974;20.868;2024-01-30T14:07:53;15.13;;;8.07;;
38937;SDS011;24727;51.974;20.868;2024-01-30T14:10:19;15.35;;;7.53;;
38937;SDS011;24727;51.974;20.868;2024-01-30T14:12:45;14.65;;;7.53;;
38937;SDS011;24727;51.974;20.868;2024-01-30T14:15:13;13.32;;;7.65;;